Time;durP1;ratioP1;P1;durP2;ratioP2;P2;SDS_P1;SDS_P2;PMS_P1;PMS_P2;Temp;Humidity;BMP_temperature;BMP_pressure;BME280_temperature;BME280_humidity;BME280_pressure;Samples;Min_cycle;Max_cycle;Signal;HPM_P1;HPM_P2
2021/03/27 00:03:17;;;;;;;8.88;4.10;;;7.60;99.90;;;;;;10374765;28;20108;-89
2021/03/27 00:08:35;;;;;;;9.18;4.30;;;7.70;99.90;;;;;;10356367;28;20423;-90
2021/03/27 00:13:51;;;;;;;7.20;4.20;;;7.80;99.90;;;;;;10358006;28;20515;-91
2021/03/27 00:19:12;;;;;;;8.35;4.30;;;7.90;99.90;;;;;;10372126;28;20089;-89
2021/03/27 00:24:31;;;;;;;7.90;4.45;;;7.90;99.90;;;;;;10383388;28;20081;-91
2021/03/27 00:29:46;;;;;;;7.82;4.40;;;7.90;99.90;;;;;;10375060;28;20046;-91
2021/03/27 00:34:56;;;;;;;6.50;3.90;;;7.80;99.90;;;;;;10375069;28;20077;-91
2021/03/27 00:40:16;;;;;;;6.00;3.83;;;7.40;99.90;;;;;;10374706;28;20049;-91
2021/03/27 00:45:31;;;;;;;5.95;3.72;;;7.60;99.90;;;;;;10373994;28;20069;-90
2021/03/27 00:50:50;;;;;;;6.18;3.40;;;7.70;99.90;;;;;;10372766;28;20184;-90
2021/03/27 00:56:12;;;;;;;5.18;2.95;;;7.70;99.90;;;;;;10371804;28;20057;-91
2021/03/27 01:01:15;;;;;;;6.00;3.28;;;7.90;99.90;;;;;;10371694;28;20080;-91
2021/03/27 01:06:31;;;;;;;5.07;2.95;;;8.20;99.90;;;;;;10355272;28;20058;-91
2021/03/27 01:12:05;;;;;;;5.10;3.30;;;8.50;99.90;;;;;;10370970;28;20475;-91
2021/03/27 01:17:10;;;;;;;5.80;3.10;;;8.70;99.90;;;;;;10334689;28;20070;-91
2021/03/27 01:22:14;;;;;;;7.57;3.20;;;8.90;99.90;;;;;;10328813;28;20460;-91
2021/03/27 01:27:29;;;;;;;7.22;3.20;;;9.10;99.90;;;;;;10332593;28;20089;-91
2021/03/27 01:32:58;;;;;;;6.68;3.15;;;9.40;99.90;;;;;;10333162;28;20109;-91
2021/03/27 01:38:24;;;;;;;4.28;2.80;;;9.50;99.90;;;;;;10352756;28;20078;-92
2021/03/27 01:43:38;;;;;;;7.90;3.28;;;9.60;99.90;;;;;;10371549;28;20058;-91
2021/03/27 01:48:43;;;;;;;7.53;3.30;;;9.60;99.90;;;;;;10317371;28;20046;-91
2021/03/27 01:53:51;;;;;;;6.10;3.35;;;9.70;99.90;;;;;;10329712;28;20551;-91
2021/03/27 01:59:00;;;;;;;7.50;3.25;;;9.80;99.90;;;;;;10313361;28;20086;-91
2021/03/27 02:04:37;;;;;;;6.68;3.42;;;9.70;99.90;;;;;;10314470;28;20835;-91
2021/03/27 02:09:44;;;;;;;5.32;3.40;;;9.80;99.90;;;;;;10328638;28;20475;-91
2021/03/27 02:15:06;;;;;;;5.75;3.03;;;9.80;99.90;;;;;;10309022;28;20046;-91
2021/03/27 02:20:30;;;;;;;;;;;9.80;99.90;;;;;;10369100;28;20558;-91
2021/03/27 02:25:59;;;;;;;3.20;2.00;;;9.70;99.90;;;;;;10307581;28;19976;-87
2021/03/27 02:31:38;;;;;;;3.30;1.80;;;9.00;99.90;;;;;;10368169;28;20092;-87
2021/03/27 02:36:58;;;;;;;2.30;1.40;;;8.20;99.90;;;;;;10368709;28;20073;-87
2021/03/27 02:42:23;;;;;;;1.48;1.10;;;7.70;99.90;;;;;;10367721;28;20077;-87
2021/03/27 02:47:40;;;;;;;2.95;1.90;;;7.50;99.90;;;;;;10368345;28;20100;-87
2021/03/27 02:52:56;;;;;;;1.67;1.30;;;7.30;99.90;;;;;;10368037;28;20104;-87
2021/03/27 02:58:08;;;;;;;2.70;1.10;;;7.30;99.90;;;;;;10368473;28;20068;-87
2021/03/27 03:03:16;;;;;;;2.78;1.13;;;7.10;99.90;;;;;;10370987;28;20500;-87
2021/03/27 03:08:33;;;;;;;1.67;1.10;;;7.10;99.90;;;;;;10373571;28;20431;-87
2021/03/27 03:13:54;;;;;;;1.38;0.90;;;7.00;99.90;;;;;;10355656;28;20104;-87
2021/03/27 03:19:14;;;;;;;2.85;1.10;;;7.00;99.90;;;;;;10372865;28;20058;-87
2021/03/27 03:24:36;;;;;;;2.17;0.90;;;7.00;99.90;;;;;;10371946;28;20042;-87
2021/03/27 03:29:52;;;;;;;3.15;1.00;;;6.80;99.90;;;;;;10313833;28;20051;-87
2021/03/27 03:35:22;;;;;;;1.60;0.80;;;6.90;99.90;;;;;;10316739;28;20105;-87
2021/03/27 03:40:48;;;;;;;1.00;0.90;;;7.00;99.90;;;;;;10332959;28;20050;-87
2021/03/27 03:46:04;;;;;;;1.63;1.05;;;6.80;99.90;;;;;;10352554;28;20053;-87
2021/03/27 03:51:37;;;;;;;2.33;1.00;;;6.60;99.90;;;;;;10358595;28;20054;-87
2021/03/27 03:56:59;;;;;;;1.35;0.85;;;6.60;99.90;;;;;;10381016;28;20057;-87
2021/03/27 04:02:07;;;;;;;2.75;1.05;;;6.60;99.90;;;;;;10379254;28;20108;-87
2021/03/27 04:07:14;;;;;;;2.45;1.20;;;6.60;99.90;;;;;;10376417;28;20054;-87
2021/03/27 04:12:30;;;;;;;2.25;1.02;;;6.50;99.90;;;;;;10373954;28;20108;-87
2021/03/27 04:17:37;;;;;;;2.42;1.00;;;6.40;99.90;;;;;;10373218;28;20108;-87
2021/03/27 04:23:16;;;;;;;3.00;1.00;;;6.40;99.90;;;;;;10373472;28;20569;-87
2021/03/27 04:28:32;;;;;;;4.28;1.48;;;6.40;99.90;;;;;;10373085;28;20083;-86
2021/03/27 04:34:10;;;;;;;3.67;1.38;;;6.30;99.90;;;;;;10372739;28;20462;-86
2021/03/27 04:39:20;;;;;;;4.47;1.30;;;6.30;99.90;;;;;;10372852;28;20077;-86
2021/03/27 04:44:48;;;;;;;4.90;1.40;;;6.20;99.90;;;;;;10332228;28;20082;-86
2021/03/27 04:49:56;;;;;;;5.28;1.55;;;6.10;99.90;;;;;;10335601;28;20565;-86
2021/03/27 04:55:15;;;;;;;4.72;1.40;;;6.00;99.90;;;;;;10372062;28;20077;-86
2021/03/27 05:00:26;;;;;;;3.90;1.40;;;6.00;99.90;;;;;;10371983;28;20110;-86
2021/03/27 05:05:51;;;;;;;5.50;1.80;;;6.00;99.90;;;;;;10371220;28;20112;-86
2021/03/27 05:11:01;;;;;;;4.75;1.63;;;5.90;99.90;;;;;;10360761;28;20466;-86
2021/03/27 05:16:38;;;;;;;7.13;1.80;;;5.90;99.90;;;;;;10353946;28;20057;-86
2021/03/27 05:22:12;;;;;;;7.22;1.70;;;6.00;99.90;;;;;;10353482;28;20045;-87
2021/03/27 05:27:31;;;;;;;5.40;1.20;;;5.70;99.90;;;;;;10371110;28;20085;-86
2021/03/27 05:33:23;;;;;;;6.15;2.00;;;5.60;99.90;;;;;;10370739;28;20049;-86
2021/03/27 05:38:39;;;;;;;5.78;1.90;;;5.60;99.90;;;;;;10361578;28;20187;-86
2021/03/27 05:43:50;;;;;;;3.47;1.38;;;5.70;99.90;;;;;;10370202;28;20046;-87
2021/03/27 05:49:10;;;;;;;4.32;1.52;;;5.80;99.90;;;;;;10370354;28;20550;-86
2021/03/27 05:54:40;;;;;;;6.10;1.70;;;5.80;99.90;;;;;;10370167;28;20054;-86
2021/03/27 05:59:45;;;;;;;5.38;1.50;;;5.90;99.90;;;;;;10351879;28;20077;-86
2021/03/27 06:05:41;;;;;;;6.05;1.67;;;5.60;99.90;;;;;;10369589;28;20088;-86
2021/03/27 06:11:36;;;;;;;4.28;1.40;;;5.40;99.90;;;;;;10338972;28;20097;-86
2021/03/27 06:16:47;;;;;;;6.18;1.80;;;5.50;99.90;;;;;;10283099;28;20069;-86
2021/03/27 06:22:23;;;;;;;4.53;1.60;;;5.60;99.90;;;;;;10368667;28;20080;-86
2021/03/27 06:27:44;;;;;;;4.53;1.48;;;6.20;99.90;;;;;;10368733;28;20050;-86
2021/03/27 06:33:42;;;;;;;4.30;1.48;;;6.10;99.90;;;;;;10369340;28;20058;-87
2021/03/27 06:39:02;;;;;;;5.28;1.60;;;6.10;99.90;;;;;;10367784;28;20057;-87
2021/03/27 06:44:23;;;;;;;5.22;1.48;;;6.30;99.90;;;;;;10368842;28;20050;-87
2021/03/27 06:50:01;;;;;;;7.15;1.83;;;6.40;99.90;;;;;;10368582;28;20104;-87
2021/03/27 06:55:45;;;;;;;7.80;2.03;;;6.60;99.90;;;;;;10368638;28;20125;-87
2021/03/27 07:01:07;;;;;;;6.53;1.80;;;6.90;99.90;;;;;;10365937;28;20164;-87
2021/03/27 07:06:39;;;;;;;9.57;1.83;;;6.60;99.90;;;;;;10367880;28;20443;-87
2021/03/27 07:12:24;;;;;;;5.22;1.80;;;6.50;99.90;;;;;;10366005;28;20080;-87
2021/03/27 07:18:18;;;;;;;7.15;1.73;;;6.40;99.90;;;;;;10345604;28;20240;-90
2021/03/27 07:29:33;;;;;;;9.05;1.90;;;6.80;99.90;;;;;;10366936;28;20422;-88
2021/03/27 07:34:43;;;;;;;6.53;1.90;;;6.90;99.90;;;;;;10328757;28;20061;-88
2021/03/27 07:40:03;;;;;;;12.13;2.23;;;7.00;99.90;;;;;;10374229;28;20078;-88
2021/03/27 07:45:38;;;;;;;10.70;2.15;;;7.20;99.90;;;;;;10373120;28;20089;-89
2021/03/27 07:51:17;;;;;;;7.13;1.95;;;7.40;99.90;;;;;;10372811;28;20384;-89
2021/03/27 07:57:08;;;;;;;7.03;2.10;;;7.80;99.90;;;;;;10355850;28;20088;-87
2021/03/27 08:03:00;;;;;;;6.93;2.22;;;8.10;98.40;;;;;;10283538;28;20109;-87
2021/03/27 08:08:18;;;;;;;6.75;2.13;;;7.70;98.60;;;;;;10342100;28;20566;-87
2021/03/27 08:13:47;;;;;;;7.05;1.95;;;7.50;96.80;;;;;;10371832;28;20054;-87
2021/03/27 08:19:13;;;;;;;7.65;2.00;;;7.40;98.70;;;;;;10372110;28;20419;-88
2021/03/27 08:24:51;;;;;;;5.90;1.92;;;7.20;99.90;;;;;;10371747;28;20123;-88
2021/03/27 08:36:13;;;;;;;8.77;2.75;;;7.40;99.90;;;;;;10370840;28;20128;-88
2021/03/27 08:42:01;;;;;;;7.93;2.00;;;7.70;99.90;;;;;;10372295;28;20124;-88
2021/03/27 08:47:44;;;;;;;7.03;2.05;;;7.60;99.90;;;;;;10369861;28;20081;-88
2021/03/27 08:53:23;;;;;;;11.20;3.10;;;7.80;99.80;;;;;;10371066;28;20539;-88
2021/03/27 08:59:05;;;;;;;9.55;2.22;;;8.30;97.00;;;;;;10371199;28;20058;-88
2021/03/27 09:04:51;;;;;;;6.40;1.77;;;7.90;99.90;;;;;;10371274;28;20090;-87
2021/03/27 09:10:11;;;;;;;6.20;1.95;;;7.10;99.90;;;;;;10370182;28;20107;-87
2021/03/27 09:15:29;;;;;;;5.10;1.30;;;7.50;99.90;;;;;;10366908;28;20093;-87
2021/03/27 09:21:02;;;;;;;5.25;1.52;;;7.70;99.90;;;;;;10329906;28;20140;-88
2021/03/27 09:26:19;;;;;;;6.28;1.95;;;8.40;99.90;;;;;;10329764;28;20042;-87
2021/03/27 09:32:00;;;;;;;7.97;2.10;;;8.90;99.90;;;;;;10328699;28;20484;-87
2021/03/27 09:43:21;;;;;;;11.57;2.10;;;9.20;97.10;;;;;;10288455;28;20103;-87
2021/03/27 09:48:56;;;;;;;6.07;2.00;;;8.50;96.10;;;;;;10318949;28;20081;-88
2021/03/27 09:54:41;;;;;;;4.93;1.80;;;8.00;99.90;;;;;;10329456;28;20077;-88
2021/03/27 09:59:55;;;;;;;7.97;1.67;;;7.00;99.90;;;;;;10289193;28;20058;-87
2021/03/27 10:05:36;;;;;;;4.72;1.40;;;5.80;99.90;;;;;;10296377;28;20504;-88
2021/03/27 10:11:01;;;;;;;3.30;1.30;;;5.50;99.90;;;;;;10322770;28;20436;-87
2021/03/27 10:16:07;;;;;;;3.83;1.73;;;6.00;99.90;;;;;;10334220;28;20060;-87
2021/03/27 10:21:26;;;;;;;3.97;1.50;;;6.30;99.90;;;;;;10368753;28;20100;-88
2021/03/27 10:26:55;;;;;;;3.40;1.50;;;6.90;99.90;;;;;;10369094;28;20130;-88
2021/03/27 10:32:01;;;;;;;4.32;1.90;;;6.90;99.90;;;;;;10368959;28;20060;-88
2021/03/27 10:37:15;;;;;;;4.22;2.00;;;7.30;99.90;;;;;;10368811;28;20084;-88
2021/03/27 10:42:34;;;;;;;7.82;1.85;;;7.70;99.90;;;;;;10351112;28;20112;-88
2021/03/27 10:48:04;;;;;;;5.07;2.08;;;7.70;99.90;;;;;;10368972;28;20133;-88
2021/03/27 10:53:46;;;;;;;7.80;1.80;;;8.10;99.90;;;;;;10368184;28;20523;-88
2021/03/27 10:59:22;;;;;;;5.65;1.80;;;8.40;99.90;;;;;;10363821;28;20050;-88
2021/03/27 11:04:37;;;;;;;14.68;3.63;;;8.80;99.90;;;;;;10367541;28;20549;-88
2021/03/27 11:10:16;;;;;;;12.25;3.92;;;9.30;99.90;;;;;;10350651;28;20081;-88
2021/03/27 11:15:36;;;;;;;17.67;7.07;;;9.10;99.90;;;;;;10367830;28;20458;-88
2021/03/27 11:20:57;;;;;;;7.15;2.42;;;8.60;99.90;;;;;;10367211;28;20077;-88
2021/03/27 11:25:59;;;;;;;;;;;8.30;99.90;;;;;;10368292;28;20104;-87
2021/03/27 11:31:12;;;;;;;;;;;8.40;99.90;;;;;;10367666;28;19967;-88
2021/03/27 11:36:24;;;;;;;6.85;1.90;;;8.00;99.90;;;;;;10367196;28;20272;-88
2021/03/27 11:41:42;;;;;;;5.50;2.13;;;7.60;99.90;;;;;;10367662;28;20128;-88
2021/03/27 11:46:45;;;;;;;5.90;2.33;;;7.50;99.90;;;;;;10366217;28;20054;-88
2021/03/27 11:51:55;;;;;;;9.15;2.35;;;7.80;99.90;;;;;;10367810;28;20054;-88
2021/03/27 11:57:09;;;;;;;7.60;2.10;;;8.00;99.90;;;;;;10349253;28;20419;-87
2021/03/27 12:02:35;;;;;;;7.18;1.85;;;7.90;99.90;;;;;;10367284;28;20104;-88
2021/03/27 12:08:06;;;;;;;6.40;1.85;;;8.20;99.90;;;;;;10350077;28;20053;-88
2021/03/27 12:13:17;;;;;;;8.07;2.05;;;8.30;99.90;;;;;;10371206;28;20053;-87
2021/03/27 12:18:45;;;;;;;6.90;2.00;;;8.60;99.90;;;;;;10373576;28;20062;-87
2021/03/27 12:23:50;;;;;;;6.85;1.92;;;8.50;99.90;;;;;;10373248;28;20049;-88
2021/03/27 12:29:22;;;;;;;7.65;2.10;;;8.60;99.90;;;;;;10374160;28;20096;-88
2021/03/27 12:34:57;;;;;;;6.97;2.10;;;8.00;99.90;;;;;;10373626;28;20054;-88
2021/03/27 12:40:25;;;;;;;6.65;1.98;;;7.20;99.90;;;;;;10355835;28;20108;-87
2021/03/27 12:45:35;;;;;;;6.93;1.90;;;6.50;99.90;;;;;;10373499;28;20078;-88
2021/03/27 12:51:08;;;;;;;11.07;2.10;;;6.60;99.90;;;;;;10372922;28;20050;-88
2021/03/27 12:56:15;;;;;;;7.50;2.33;;;6.80;99.90;;;;;;10372185;28;20145;-88
2021/03/27 13:01:37;;;;;;;6.63;2.10;;;6.90;99.90;;;;;;10372903;28;20081;-87
2021/03/27 13:06:44;;;;;;;5.78;2.20;;;7.30;99.90;;;;;;10372118;28;20072;-87
2021/03/27 13:11:45;;;;;;;7.43;2.08;;;7.90;99.90;;;;;;10354655;28;20569;-88
2021/03/27 13:16:49;;;;;;;6.65;1.80;;;8.20;99.90;;;;;;10371925;28;20092;-88
2021/03/27 13:22:17;;;;;;;4.78;1.65;;;8.50;99.90;;;;;;10370559;28;20046;-88
2021/03/27 13:27:34;;;;;;;7.05;1.85;;;8.40;99.90;;;;;;10353891;28;20097;-88
2021/03/27 13:32:37;;;;;;;4.32;1.33;;;8.50;99.90;;;;;;10354216;28;20061;-87
2021/03/27 13:38:03;;;;;;;4.45;1.40;;;8.30;99.90;;;;;;10370263;28;20108;-87
2021/03/27 13:43:15;;;;;;;6.10;3.15;;;8.10;99.90;;;;;;10353229;28;20427;-87
2021/03/27 13:48:37;;;;;;;3.70;1.40;;;8.80;99.90;;;;;;10370188;28;20129;-87
2021/03/27 13:54:24;;;;;;;12.90;7.25;;;9.50;98.30;;;;;;10352357;28;20530;-87
2021/03/27 13:59:48;;;;;;;7.15;1.70;;;9.50;97.40;;;;;;10363499;28;20049;-87
2021/03/27 14:04:59;;;;;;;3.80;1.15;;;9.40;94.50;;;;;;10368112;28;20388;-87
2021/03/27 14:10:26;;;;;;;3.00;1.50;;;8.90;90.10;;;;;;10366428;28;20272;-87
2021/03/27 14:15:38;;;;;;;5.38;1.98;;;8.70;87.50;;;;;;10349092;28;20069;-87
2021/03/27 14:21:11;;;;;;;3.17;1.38;;;8.90;90.00;;;;;;10369422;28;20053;-87
2021/03/27 14:26:46;;;;;;;4.75;1.30;;;9.20;85.00;;;;;;10368674;28;20940;-87
2021/03/27 14:32:14;;;;;;;2.50;1.23;;;9.20;83.60;;;;;;10369724;28;20108;-88
2021/03/27 14:37:44;;;;;;;3.95;1.30;;;9.40;80.10;;;;;;10367631;28;20515;-87
2021/03/27 14:43:07;;;;;;;4.53;1.38;;;9.40;76.20;;;;;;10346510;28;20104;-88
2021/03/27 14:48:33;;;;;;;3.55;1.40;;;9.00;79.60;;;;;;10367720;28;20124;-87
2021/03/27 14:53:51;;;;;;;20.13;2.78;;;8.80;78.90;;;;;;10369004;28;20045;-87
2021/03/27 14:59:15;;;;;;;6.50;1.63;;;9.10;78.30;;;;;;10368992;28;20092;-87
2021/03/27 15:04:31;;;;;;;4.18;1.60;;;8.90;77.40;;;;;;10368274;28;20090;-88
2021/03/27 15:09:47;;;;;;;9.10;1.90;;;8.60;76.80;;;;;;10367900;28;20049;-88
2021/03/27 15:15:08;;;;;;;5.03;1.90;;;8.80;75.00;;;;;;10367760;28;20483;-87
2021/03/27 15:20:28;;;;;;;11.63;2.07;;;8.80;74.20;;;;;;10368176;28;20084;-87
2021/03/27 15:31:34;;;;;;;8.35;1.65;;;8.80;74.70;;;;;;10367178;28;20424;-88
2021/03/27 15:36:59;;;;;;;6.45;1.75;;;8.60;75.30;;;;;;10367891;28;20061;-88
2021/03/27 15:42:25;;;;;;;4.05;1.60;;;8.80;74.50;;;;;;10367734;28;20454;-88
2021/03/27 15:47:36;;;;;;;5.47;1.65;;;8.90;74.20;;;;;;10370566;28;20484;-88
2021/03/27 15:52:52;;;;;;;6.30;1.90;;;8.90;73.90;;;;;;10374658;28;20122;-88
2021/03/27 15:57:54;;;;;;;4.43;1.65;;;9.10;71.90;;;;;;10358089;28;20062;-88
2021/03/27 16:03:33;;;;;;;8.00;1.95;;;9.10;70.10;;;;;;10374362;28;20046;-88
2021/03/27 16:08:51;;;;;;;8.25;4.68;;;9.10;69.90;;;;;;10374680;28;20073;-87
2021/03/27 16:14:16;;;;;;;20.45;7.75;;;9.10;70.90;;;;;;10374578;28;20053;-87
2021/03/27 16:19:56;;;;;;;12.57;5.30;;;9.20;71.20;;;;;;10373370;28;20098;-87
2021/03/27 16:25:39;;;;;;;6.35;2.83;;;9.40;69.30;;;;;;10356592;28;20082;-88
2021/03/27 16:31:00;;;;;;;4.78;1.67;;;9.10;71.50;;;;;;10362858;28;20046;-88
2021/03/27 16:36:29;;;;;;;7.40;1.77;;;8.70;76.40;;;;;;10373192;28;20050;-87
2021/03/27 16:41:43;;;;;;;5.32;1.63;;;8.50;82.10;;;;;;10373037;28;20078;-88
2021/03/27 16:46:54;;;;;;;5.20;1.70;;;8.40;83.80;;;;;;10372331;28;20538;-88
2021/03/27 16:52:13;;;;;;;7.38;2.03;;;8.40;85.80;;;;;;10373218;28;20077;-87
2021/03/27 16:57:51;;;;;;;7.63;1.70;;;8.40;87.00;;;;;;10371127;28;20465;-87
2021/03/27 17:03:06;;;;;;;5.53;1.70;;;8.20;89.30;;;;;;10372179;28;20053;-88
2021/03/27 17:08:17;;;;;;;4.60;1.77;;;8.10;90.90;;;;;;10372858;28;20121;-88
2021/03/27 17:13:34;;;;;;;7.93;2.70;;;7.90;91.40;;;;;;10380424;28;20054;-88
2021/03/27 17:19:10;;;;;;;5.03;2.22;;;7.70;93.10;;;;;;10382895;28;20053;-87
2021/03/27 17:24:39;;;;;;;4.93;1.85;;;7.40;94.40;;;;;;10353685;28;20046;-87
2021/03/27 17:30:00;;;;;;;4.88;1.60;;;7.10;96.00;;;;;;10370867;28;20635;-87
2021/03/27 17:35:31;;;;;;;6.00;1.90;;;7.00;96.50;;;;;;10371098;28;20077;-87
2021/03/27 17:41:09;;;;;;;6.25;2.33;;;6.90;98.00;;;;;;10354150;28;20104;-88
2021/03/27 17:46:22;;;;;;;6.68;1.90;;;6.80;98.70;;;;;;10353140;28;20108;-88
2021/03/27 17:52:04;;;;;;;7.80;2.10;;;6.50;99.90;;;;;;10370948;28;20084;-87
2021/03/27 17:57:08;;;;;;;;;;;6.50;99.90;;;;;;10352704;28;20498;-88
2021/03/27 18:02:10;;;;;;;6.13;1.90;;;6.30;99.90;;;;;;10370218;28;19976;-87
2021/03/27 18:07:19;;;;;;;7.07;2.00;;;6.20;99.90;;;;;;10370045;28;20042;-88
2021/03/27 18:12:28;;;;;;;5.75;2.05;;;6.20;99.90;;;;;;10369143;28;20515;-87
2021/03/27 18:17:38;;;;;;;7.05;2.22;;;6.00;99.90;;;;;;10349466;28;20093;-88
2021/03/27 18:22:56;;;;;;;4.85;1.80;;;5.90;99.90;;;;;;10328381;28;20134;-88
2021/03/27 18:28:18;;;;;;;6.38;2.05;;;5.80;99.90;;;;;;10328390;28;20050;-87
2021/03/27 18:33:47;;;;;;;7.20;2.35;;;5.80;99.90;;;;;;10328280;28;20491;-87
2021/03/27 18:38:49;;;;;;;7.47;2.42;;;5.80;99.90;;;;;;10310771;28;20571;-87
2021/03/27 18:44:10;;;;;;;6.28;2.00;;;5.60;99.90;;;;;;10310652;28;20046;-88
2021/03/27 18:49:14;;;;;;;6.10;2.20;;;5.60;99.90;;;;;;10327641;28;20046;-88
2021/03/27 18:54:25;;;;;;;7.07;2.35;;;5.50;99.90;;;;;;10323052;28;20108;-87
2021/03/27 18:59:29;;;;;;;;;;;5.50;99.90;;;;;;10368541;28;20456;-87
2021/03/27 19:04:39;;;;;;;9.95;3.53;;;5.30;99.90;;;;;;10368768;28;19956;-87
2021/03/27 19:10:06;;;;;;;4.93;2.20;;;5.30;99.90;;;;;;10367788;28;20073;-87
2021/03/27 19:15:10;;;;;;;8.00;2.60;;;5.10;99.90;;;;;;10350304;28;20135;-87
2021/03/27 19:20:27;;;;;;;5.30;1.88;;;5.10;99.90;;;;;;10408879;28;20558;-87
2021/03/27 19:25:31;;;;;;;6.97;2.05;;;5.10;99.90;;;;;;10416749;28;20108;-87
2021/03/27 19:30:44;;;;;;;6.50;1.90;;;5.00;99.90;;;;;;10398805;28;20419;-87
2021/03/27 19:35:52;;;;;;;7.25;2.38;;;5.00;99.90;;;;;;10417188;28;20053;-88
2021/03/27 19:40:58;;;;;;;6.65;2.20;;;4.90;99.90;;;;;;10416720;28;20077;-88
2021/03/27 19:46:44;;;;;;;7.38;2.90;;;4.80;99.90;;;;;;10398957;28;20073;-87
2021/03/27 19:52:03;;;;;;;8.25;2.22;;;4.80;99.90;;;;;;10404917;28;20080;-87
2021/03/27 19:57:43;;;;;;;10.02;2.40;;;4.70;99.90;;;;;;10415014;28;20148;-88
2021/03/27 20:02:50;;;;;;;10.60;2.97;;;4.70;99.90;;;;;;10400392;28;20111;-86
2021/03/27 20:08:00;;;;;;;8.20;2.45;;;4.60;99.90;;;;;;10415635;28;20075;-87
2021/03/27 20:13:28;;;;;;;8.05;2.80;;;4.50;99.90;;;;;;10398194;28;20057;-87
2021/03/27 20:18:44;;;;;;;8.18;2.38;;;4.50;99.90;;;;;;10396708;28;20577;-87
2021/03/27 20:24:22;;;;;;;10.15;3.42;;;4.50;99.90;;;;;;10414888;28;20077;-88
2021/03/27 20:30:00;;;;;;;33.08;20.70;;;4.50;99.90;;;;;;10415083;28;20077;-88
2021/03/27 20:35:34;;;;;;;9.23;3.55;;;4.60;99.90;;;;;;10414212;28;20049;-88
2021/03/27 20:40:47;;;;;;;8.32;3.17;;;4.50;99.90;;;;;;10390962;28;20057;-88
2021/03/27 20:45:57;;;;;;;8.55;3.30;;;4.40;99.90;;;;;;10414339;28;20049;-88
2021/03/27 20:51:34;;;;;;;9.48;3.10;;;4.30;99.90;;;;;;10413244;28;20129;-87
2021/03/27 20:56:50;;;;;;;9.70;4.00;;;4.30;99.90;;;;;;10413986;28;20041;-88
2021/03/27 21:02:13;;;;;;;7.65;2.90;;;4.40;99.90;;;;;;10412617;28;20081;-87
2021/03/27 21:07:23;;;;;;;9.45;2.90;;;4.30;99.90;;;;;;10413357;28;20534;-87
2021/03/27 21:12:48;;;;;;;7.88;2.80;;;4.30;99.90;;;;;;10368356;28;20423;-87
2021/03/27 21:17:53;;;;;;;10.25;2.80;;;4.20;99.90;;;;;;10375910;28;20072;-88
2021/03/27 21:23:06;;;;;;;9.15;2.80;;;4.20;99.90;;;;;;10379425;28;20138;-87
2021/03/27 21:28:12;;;;;;;7.93;2.95;;;4.00;99.90;;;;;;10371751;28;20088;-87
2021/03/27 21:33:39;;;;;;;7.80;3.00;;;3.90;99.90;;;;;;10400255;28;20302;-87
2021/03/27 21:39:34;;;;;;;12.32;2.92;;;3.80;99.90;;;;;;10412193;28;20077;-89
2021/03/27 21:44:58;;;;;;;10.93;3.28;;;3.80;99.90;;;;;;10361879;28;20049;-88
2021/03/27 21:50:04;;;;;;;7.10;2.88;;;3.80;99.90;;;;;;10411147;28;20096;-88
2021/03/27 21:55:27;;;;;;;9.30;2.90;;;3.80;99.90;;;;;;10411563;28;20049;-89
2021/03/27 22:00:56;;;;;;;10.57;3.20;;;3.80;99.90;;;;;;10411225;28;20073;-88
2021/03/27 22:06:23;;;;;;;8.73;3.33;;;3.80;99.90;;;;;;10410826;28;20053;-88
2021/03/27 22:11:50;;;;;;;6.95;2.97;;;3.70;99.90;;;;;;10410497;28;20189;-88
2021/03/27 22:17:17;;;;;;;10.43;3.38;;;3.70;99.90;;;;;;10375708;28;20058;-89
2021/03/27 22:22:22;;;;;;;11.55;3.50;;;3.70;99.90;;;;;;10352823;28;20049;-88
2021/03/27 22:27:38;;;;;;;6.65;3.10;;;3.50;99.90;;;;;;10370483;28;20050;-89
2021/03/27 22:32:45;;;;;;;11.07;4.18;;;3.50;99.90;;;;;;10371159;28;20053;-89
2021/03/27 22:37:55;;;;;;;21.58;7.25;;;3.50;99.90;;;;;;10353135;28;20054;-89
2021/03/27 22:43:00;;;;;;;10.95;3.22;;;3.40;99.90;;;;;;10370382;28;20088;-88
2021/03/27 22:48:08;;;;;;;12.27;5.05;;;3.40;99.90;;;;;;10353940;28;20203;-88
2021/03/27 22:53:12;;;;;;;18.10;7.07;;;3.50;99.90;;;;;;10352221;28;20089;-88
2021/03/27 22:58:13;;;;;;;17.60;9.63;;;3.50;99.90;;;;;;10368843;28;20554;-89
2021/03/27 23:03:19;;;;;;;9.85;4.13;;;3.40;99.90;;;;;;10369675;28;20050;-88
2021/03/27 23:08:27;;;;;;;11.15;4.40;;;3.50;99.90;;;;;;10370741;28;20108;-89
2021/03/27 23:13:43;;;;;;;17.05;7.88;;;3.30;99.90;;;;;;10372277;28;20084;-89
2021/03/27 23:18:46;;;;;;;14.10;4.45;;;3.20;99.90;;;;;;10370691;28;20050;-90
2021/03/27 23:24:10;;;;;;;8.82;3.83;;;3.30;99.90;;;;;;10371221;28;20050;-89
2021/03/27 23:29:39;;;;;;;11.27;4.22;;;3.30;99.90;;;;;;10371010;28;20088;-90
2021/03/27 23:34:49;;;;;;;11.57;4.65;;;3.30;99.90;;;;;;10370308;28;20517;-89
2021/03/27 23:39:53;;;;;;;9.05;3.88;;;3.20;99.90;;;;;;10354232;28;20092;-89
2021/03/27 23:45:06;;;;;;;13.35;4.30;;;3.00;99.90;;;;;;10370542;28;20096;-90
2021/03/27 23:50:31;;;;;;;12.52;4.38;;;2.90;99.90;;;;;;10370210;28;20440;-89
2021/03/27 23:56:13;;;;;;;8.50;4.00;;;2.90;99.90;;;;;;10329294;28;20058;-89
